Time;durP1;ratioP1;P1;durP2;ratioP2;P2;SDS_P1;SDS_P2;PMS_P1;PMS_P2;Temp;Humidity;BMP_temperature;BMP_pressure;BME280_temperature;BME280_humidity;BME280_pressure;Samples;Min_cycle;Max_cycle;Signal;HPM_P1;HPM_P2
2023/03/02 00:02:03;;;;;;;15.60;8.37;;;;;;;2.63;57.11;100977.75;5066717;28;20221;-71
2023/03/02 00:04:44;;;;;;;19.83;8.73;;;;;;;2.46;57.45;100976.84;5065840;28;20249;-71
2023/03/02 00:07:15;;;;;;;17.43;9.00;;;;;;;2.34;58.01;100975.25;5066895;28;20201;-71
2023/03/02 00:09:43;;;;;;;19.70;9.33;;;;;;;2.21;58.48;100978.88;5068415;28;20232;-71
2023/03/02 00:12:10;;;;;;;16.03;9.13;;;;;;;2.19;58.73;100977.91;5063660;28;20281;-71
2023/03/02 00:14:39;;;;;;;15.97;8.80;;;;;;;2.27;58.72;100980.94;5067506;28;20267;-71
2023/03/02 00:17:06;;;;;;;18.63;8.77;;;;;;;2.27;58.68;100976.63;5068692;28;20194;-70
2023/03/02 00:19:33;;;;;;;18.73;9.17;;;;;;;2.37;58.32;100980.63;5067815;28;20783;-71
2023/03/02 00:21:59;;;;;;;16.97;9.17;;;;;;;2.29;58.60;100977.59;5067213;28;20247;-71
2023/03/02 00:24:25;;;;;;;16.93;9.23;;;;;;;2.18;58.92;100970.88;5067366;28;20671;-71
2023/03/02 00:26:52;;;;;;;17.67;8.87;;;;;;;2.28;58.81;100965.34;5067744;28;20672;-71
2023/03/02 00:29:18;;;;;;;15.43;8.50;;;;;;;2.33;58.70;100970.81;5060164;28;20207;-71
2023/03/02 00:31:45;;;;;;;17.90;9.13;;;;;;;2.34;58.61;100963.06;5063833;28;20285;-71
2023/03/02 00:34:11;;;;;;;17.40;9.33;;;;;;;2.37;58.48;100963.22;5064152;28;20270;-71
2023/03/02 00:36:38;;;;;;;18.30;8.90;;;;;;;2.37;58.69;100971.06;5062997;28;20193;-71
2023/03/02 00:39:04;;;;;;;17.37;9.33;;;;;;;2.35;58.74;100967.47;5061859;28;20199;-71
2023/03/02 00:41:31;;;;;;;15.87;8.33;;;;;;;2.37;58.66;100967.56;5070587;28;20254;-71
2023/03/02 00:43:57;;;;;;;18.00;9.37;;;;;;;2.41;58.53;100960.00;5063623;28;20225;-71
2023/03/02 00:46:24;;;;;;;18.37;9.33;;;;;;;2.29;58.72;100961.91;5060342;28;20198;-70
2023/03/02 00:48:51;;;;;;;15.20;9.43;;;;;;;2.37;58.80;100959.72;5063470;28;20201;-71
2023/03/02 00:51:18;;;;;;;16.80;8.63;;;;;;;2.29;58.93;100959.31;5066692;28;20202;-71
2023/03/02 00:53:44;;;;;;;17.43;8.60;;;;;;;2.29;59.17;100951.47;5068258;28;20264;-71
2023/03/02 00:56:10;;;;;;;18.00;9.23;;;;;;;2.21;59.68;100958.00;5060546;28;20666;-72
2023/03/02 00:58:37;;;;;;;18.97;8.87;;;;;;;2.26;59.62;100943.47;5066922;28;20279;-71
2023/03/02 01:01:09;;;;;;;17.23;9.30;;;;;;;2.22;59.47;100948.44;5064456;28;20195;-71
2023/03/02 01:03:36;;;;;;;16.27;9.00;;;;;;;2.20;59.74;100937.91;5062062;28;20193;-68
2023/03/02 01:06:03;;;;;;;16.77;9.10;;;;;;;2.19;59.87;100939.63;5063573;28;20219;-71
2023/03/02 01:08:30;;;;;;;17.80;9.57;;;;;;;2.28;59.55;100939.22;5065129;28;20262;-71
2023/03/02 01:11:00;;;;;;;17.43;9.00;;;;;;;2.25;59.67;100936.44;5068049;28;20207;-71
2023/03/02 01:13:28;;;;;;;18.03;9.70;;;;;;;2.25;59.76;100933.81;5062437;28;20198;-71
2023/03/02 01:16:00;;;;;;;16.80;9.23;;;;;;;2.11;60.41;100926.94;5059924;28;20203;-71
2023/03/02 01:18:26;;;;;;;19.63;9.93;;;;;;;2.08;60.03;100922.44;5067188;28;20202;-71
2023/03/02 01:21:07;;;;;;;18.03;10.13;;;;;;;2.19;59.98;100930.88;5067378;28;20576;-71
2023/03/02 01:23:33;;;;;;;21.20;8.87;;;;;;;2.20;59.84;100923.13;5060114;28;20199;-71
2023/03/02 01:26:00;;;;;;;16.87;8.83;;;;;;;2.10;60.32;100917.31;5063762;28;20713;-71
2023/03/02 01:28:27;;;;;;;18.33;9.37;;;;;;;2.09;60.30;100918.13;5065654;28;20749;-71
2023/03/02 01:30:53;;;;;;;19.33;9.37;;;;;;;2.08;60.50;100921.56;5065928;28;20233;-71
2023/03/02 01:33:20;;;;;;;17.87;9.27;;;;;;;2.06;60.52;100918.84;5065863;28;20741;-71
2023/03/02 01:35:47;;;;;;;19.70;9.83;;;;;;;2.14;60.17;100917.56;5070837;28;20217;-71
2023/03/02 01:38:15;;;;;;;16.50;9.13;;;;;;;2.13;60.32;100914.88;5074882;28;20200;-71
2023/03/02 01:44:47;;;;;;;17.63;9.03;;;;;;;2.02;60.59;100916.00;5066708;28;20225;-71
2023/03/02 01:47:19;;;;;;;18.33;9.43;;;;;;;2.00;60.72;100912.38;5068366;28;20208;-71
2023/03/02 01:49:59;;;;;;;16.67;8.93;;;;;;;1.87;61.36;100916.91;5071616;28;20220;-71
2023/03/02 01:52:28;;;;;;;18.90;10.00;;;;;;;1.76;61.98;100914.53;5066510;28;20699;-71
2023/03/02 01:55:00;;;;;;;19.23;9.53;;;;;;;1.80;61.96;100914.78;5068020;28;20210;-72
2023/03/02 01:57:31;;;;;;;19.20;9.53;;;;;;;2.12;60.93;100913.06;5067585;28;20240;-71
2023/03/02 02:00:05;;;;;;;18.37;9.40;;;;;;;2.05;60.75;100909.22;5068202;28;20226;-71
2023/03/02 02:02:31;;;;;;;21.30;9.83;;;;;;;2.05;61.00;100910.94;5064946;28;20281;-71
2023/03/02 02:04:58;;;;;;;15.50;8.77;;;;;;;2.05;60.99;100901.38;5065737;28;20233;-71
2023/03/02 02:07:24;;;;;;;16.83;8.83;;;;;;;1.97;61.55;100906.97;5070010;28;20204;-71
2023/03/02 02:09:51;;;;;;;21.73;9.47;;;;;;;2.00;61.24;100902.84;5066471;28;20189;-71
2023/03/02 02:12:20;;;;;;;18.37;9.73;;;;;;;1.95;61.72;100896.44;5068674;28;20194;-71
2023/03/02 02:14:48;;;;;;;22.07;9.80;;;;;;;1.96;61.76;100897.34;5061840;28;20214;-71
2023/03/02 02:17:16;;;;;;;16.83;9.03;;;;;;;1.86;62.23;100891.59;5068809;28;20197;-71
2023/03/02 02:20:00;;;;;;;17.80;9.73;;;;;;;1.93;61.83;100891.94;5061172;28;20248;-71
2023/03/02 02:22:33;;;;;;;18.07;9.07;;;;;;;1.99;61.79;100887.97;5067097;28;20267;-71
2023/03/02 02:25:05;;;;;;;17.03;9.23;;;;;;;2.00;61.50;100888.84;5068599;28;20252;-71
2023/03/02 02:27:32;;;;;;;21.83;9.80;;;;;;;2.06;61.44;100884.91;5063961;28;20199;-71
2023/03/02 02:30:02;;;;;;;20.33;10.03;;;;;;;2.00;61.53;100884.56;5069004;28;20668;-71
2023/03/02 02:32:33;;;;;;;17.20;9.80;;;;;;;2.06;61.57;100881.38;5069364;28;20251;-71
2023/03/02 02:35:18;;;;;;;20.27;9.83;;;;;;;2.14;61.11;100881.00;5071725;28;20764;-71
2023/03/02 02:37:49;;;;;;;17.43;9.27;;;;;;;2.05;61.40;100870.03;5066566;28;20254;-71
2023/03/02 02:40:22;;;;;;;19.47;9.40;;;;;;;2.17;61.54;100882.88;5068933;28;20252;-71
2023/03/02 02:42:51;;;;;;;20.87;10.13;;;;;;;2.14;61.19;100875.75;5069840;28;20201;-71
2023/03/02 02:45:25;;;;;;;17.23;9.30;;;;;;;2.06;61.54;100878.78;5062780;28;20222;-71
2023/03/02 02:47:55;;;;;;;18.93;9.73;;;;;;;2.00;61.78;100876.72;5067463;28;20197;-71
2023/03/02 02:50:33;;;;;;;18.60;9.83;;;;;;;1.96;62.04;100869.50;5070255;28;20213;-71
2023/03/02 02:53:04;;;;;;;16.80;9.77;;;;;;;1.86;62.73;100865.50;5068908;28;20222;-71
2023/03/02 02:55:32;;;;;;;23.30;9.93;;;;;;;1.82;62.93;100860.91;5066650;28;20255;-71
2023/03/02 02:58:01;;;;;;;22.13;9.57;;;;;;;1.76;63.15;100867.53;5068100;28;20247;-71
2023/03/02 03:00:27;;;;;;;16.27;9.63;;;;;;;1.76;63.51;100863.19;5070373;28;20212;-71
2023/03/02 03:03:05;;;;;;;17.80;9.10;;;;;;;1.68;63.83;100864.50;5067528;28;20220;-71
2023/03/02 03:05:32;;;;;;;17.00;9.30;;;;;;;1.77;63.58;100853.66;5062173;28;20244;-71
2023/03/02 03:08:09;;;;;;;16.70;8.93;;;;;;;1.69;63.98;100857.56;5069787;28;20232;-71
2023/03/02 03:10:39;;;;;;;20.83;10.00;;;;;;;1.66;64.31;100846.94;5067930;28;20197;-71
2023/03/02 03:13:09;;;;;;;20.23;10.73;;;;;;;1.65;64.56;100848.66;5059184;28;20195;-71
2023/03/02 03:15:35;;;;;;;18.47;9.70;;;;;;;1.66;64.34;100849.56;5068386;28;20221;-71
2023/03/02 03:18:01;;;;;;;19.13;9.30;;;;;;;1.63;64.65;100850.28;5084919;28;20205;-71
2023/03/02 03:20:28;;;;;;;16.90;9.10;;;;;;;1.56;64.65;100849.00;5063646;28;20263;-71
2023/03/02 03:22:58;;;;;;;21.53;10.57;;;;;;;1.68;64.36;100851.44;5066093;28;20221;-71
2023/03/02 03:25:25;;;;;;;17.13;9.17;;;;;;;1.55;64.68;100847.22;5068340;28;20705;-71
2023/03/02 03:27:51;;;;;;;18.20;9.57;;;;;;;1.68;64.82;100846.22;5066047;28;20665;-71
2023/03/02 03:30:18;;;;;;;20.40;10.33;;;;;;;1.71;64.42;100843.78;5066767;28;20197;-71
2023/03/02 03:32:44;;;;;;;19.03;10.13;;;;;;;1.75;64.25;100840.50;5068210;28;20256;-71
2023/03/02 03:35:11;;;;;;;21.60;10.10;;;;;;;1.64;64.45;100836.41;5069796;28;20210;-71
2023/03/02 03:37:39;;;;;;;17.73;10.30;;;;;;;1.67;65.06;100846.13;5067488;28;20199;-71
2023/03/02 03:40:08;;;;;;;19.47;9.93;;;;;;;1.46;65.73;100838.88;5068367;28;20228;-71
2023/03/02 03:42:38;;;;;;;22.67;10.70;;;;;;;1.29;66.92;100841.34;5067895;28;20240;-71
2023/03/02 03:45:07;;;;;;;23.33;11.93;;;;;;;1.13;67.61;100830.00;5069327;28;20218;-71
2023/03/02 03:47:34;;;;;;;22.87;11.63;;;;;;;1.05;68.20;100833.00;5061661;28;20252;-72
2023/03/02 03:50:00;;;;;;;20.67;11.00;;;;;;;0.96;69.13;100842.88;5066259;28;20206;-71
2023/03/02 03:52:29;;;;;;;22.10;11.20;;;;;;;0.82;69.78;100835.16;5067366;28;20198;-71
2023/03/02 03:55:00;;;;;;;23.33;10.90;;;;;;;0.66;70.74;100844.56;5068500;28;20217;-71
2023/03/02 03:57:27;;;;;;;19.43;10.50;;;;;;;0.63;71.14;100845.28;5064741;28;20194;-71
2023/03/02 03:59:54;;;;;;;21.50;11.50;;;;;;;0.53;71.59;100862.06;5062937;28;20198;-71
2023/03/02 04:02:21;;;;;;;21.17;10.33;;;;;;;0.50;71.95;100845.38;5066502;28;20198;-71
2023/03/02 04:04:47;;;;;;;20.13;9.83;;;;;;;0.38;72.78;100849.81;5067895;28;20252;-71
2023/03/02 04:07:14;;;;;;;21.77;10.80;;;;;;;0.25;73.88;100849.06;5065409;28;20605;-71
2023/03/02 04:09:41;;;;;;;18.17;9.40;;;;;;;0.18;74.46;100852.09;5066854;28;20204;-71
2023/03/02 04:12:08;;;;;;;19.53;10.63;;;;;;;0.16;74.48;100853.72;5063653;28;20227;-71
2023/03/02 04:14:35;;;;;;;17.63;10.17;;;;;;;0.07;75.00;100850.53;5067954;28;20304;-71
2023/03/02 04:17:04;;;;;;;17.50;9.73;;;;;;;0.01;75.84;100855.38;5067550;28;20193;-71
2023/03/02 04:19:31;;;;;;;20.13;9.30;;;;;;;-0.04;75.97;100861.97;5067163;28;20248;-71
2023/03/02 04:21:58;;;;;;;18.07;9.83;;;;;;;0.07;75.87;100863.56;5068712;28;20224;-71
2023/03/02 04:24:24;;;;;;;20.27;10.10;;;;;;;-0.01;76.26;100860.44;5062894;28;20229;-71
2023/03/02 04:26:51;;;;;;;19.80;10.10;;;;;;;-0.05;76.49;100861.06;5068049;28;20668;-71
2023/03/02 04:29:17;;;;;;;20.03;9.97;;;;;;;-0.05;76.79;100858.47;5067554;28;20335;-72
2023/03/02 04:31:44;;;;;;;19.93;10.13;;;;;;;-0.13;76.93;100861.41;5067751;28;20228;-71
2023/03/02 04:34:10;;;;;;;19.03;9.30;;;;;;;-0.20;77.62;100864.41;5064214;28;20214;-71
2023/03/02 04:36:38;;;;;;;17.93;10.27;;;;;;;-0.20;77.93;100869.63;5064462;28;20242;-72
2023/03/02 04:39:05;;;;;;;18.83;9.60;;;;;;;-0.21;78.09;100866.13;5068239;28;20576;-71
2023/03/02 04:41:32;;;;;;;20.20;10.37;;;;;;;-0.26;78.53;100872.75;5067627;28;20211;-71
2023/03/02 04:43:58;;;;;;;20.10;10.03;;;;;;;-0.28;78.58;100871.75;5067885;28;20224;-71
2023/03/02 04:46:26;;;;;;;18.57;9.97;;;;;;;-0.37;79.23;100860.75;5067285;28;20227;-71
2023/03/02 04:48:53;;;;;;;20.60;10.47;;;;;;;-0.38;79.96;100869.34;5067969;28;20194;-71
2023/03/02 04:51:26;;;;;;;23.40;11.07;;;;;;;-0.39;79.83;100873.66;5061629;28;20624;-71
2023/03/02 04:53:55;;;;;;;17.43;9.57;;;;;;;-0.35;79.73;100861.75;5060434;28;20734;-71
2023/03/02 04:56:22;;;;;;;19.10;9.80;;;;;;;-0.05;78.50;100862.78;5068239;28;20231;-72
2023/03/02 04:58:48;;;;;;;21.33;10.60;;;;;;;-0.01;78.09;100865.66;5067432;28;20226;-71
2023/03/02 05:01:16;;;;;;;19.67;9.67;;;;;;;0.14;77.56;100859.63;5067016;28;20198;-71
2023/03/02 05:03:44;;;;;;;22.90;10.47;;;;;;;0.23;77.09;100862.81;5064892;28;20232;-71
2023/03/02 05:06:10;;;;;;;18.13;9.57;;;;;;;0.32;76.42;100863.34;5071415;28;20267;-71
2023/03/02 05:08:37;;;;;;;21.43;9.90;;;;;;;0.42;76.08;100870.97;5072125;28;20222;-71
2023/03/02 05:11:06;;;;;;;17.77;9.13;;;;;;;0.55;75.49;100875.19;5070052;28;20237;-71
2023/03/02 05:13:33;;;;;;;18.40;9.27;;;;;;;0.49;75.62;100870.53;5064501;28;20251;-71
2023/03/02 05:15:59;;;;;;;20.10;9.37;;;;;;;0.41;75.78;100863.94;5064717;28;20191;-71
2023/03/02 05:18:26;;;;;;;19.73;9.80;;;;;;;0.37;76.19;100864.53;5069327;28;20207;-71
2023/03/02 05:20:52;;;;;;;19.17;9.10;;;;;;;0.11;76.83;100862.03;5064800;28;20209;-71
2023/03/02 05:23:23;;;;;;;17.23;8.77;;;;;;;-0.08;77.97;100865.19;5072114;28;20208;-71
2023/03/02 05:25:52;;;;;;;25.13;9.80;;;;;;;-0.15;78.75;100863.00;5069113;28;20211;-71
2023/03/02 05:28:20;;;;;;;18.60;9.43;;;;;;;-0.26;79.01;100862.31;5071497;28;20230;-71
2023/03/02 05:30:46;;;;;;;20.00;9.53;;;;;;;-0.26;79.55;100854.53;5066684;28;20199;-71
2023/03/02 05:33:14;;;;;;;19.00;9.43;;;;;;;-0.25;79.48;100858.03;5067839;28;20658;-71
2023/03/02 05:35:41;;;;;;;18.73;9.67;;;;;;;-0.22;79.15;100859.13;5065301;28;20298;-71
2023/03/02 05:38:08;;;;;;;19.10;9.60;;;;;;;-0.14;78.54;100849.19;5071957;28;20581;-71
2023/03/02 05:40:35;;;;;;;20.00;9.57;;;;;;;0.01;78.44;100851.88;5069252;28;20575;-71
2023/03/02 05:43:01;;;;;;;17.63;9.97;;;;;;;0.11;77.77;100849.03;5064102;28;20200;-71
2023/03/02 05:45:31;;;;;;;22.13;9.70;;;;;;;0.11;77.71;100849.03;5065926;28;20216;-71
2023/03/02 05:47:57;;;;;;;25.20;11.97;;;;;;;0.12;77.58;100851.72;5069191;28;20609;-71
2023/03/02 05:50:24;;;;;;;24.17;12.47;;;;;;;0.17;77.49;100852.00;5069412;28;20230;-72
2023/03/02 05:52:50;;;;;;;23.40;11.73;;;;;;;0.14;77.31;100855.31;5068441;28;20279;-71
2023/03/02 05:55:18;;;;;;;23.53;11.13;;;;;;;0.11;77.78;100856.84;5067788;28;20625;-71
2023/03/02 05:57:44;;;;;;;25.80;12.30;;;;;;;0.02;77.96;100858.88;5067080;28;20253;-71
2023/03/02 06:00:12;;;;;;;26.57;12.17;;;;;;;-0.10;78.49;100867.69;5066398;28;20293;-71
2023/03/02 06:02:39;;;;;;;22.23;11.93;;;;;;;-0.18;79.00;100862.81;5068563;28;20542;-71
2023/03/02 06:05:11;;;;;;;20.33;11.07;;;;;;;-0.33;79.57;100860.16;5065787;28;20220;-71
2023/03/02 06:07:38;;;;;;;18.00;10.03;;;;;;;-0.36;80.45;100870.34;5068110;28;20196;-71
2023/03/02 06:10:06;;;;;;;18.27;10.27;;;;;;;-0.44;81.17;100866.34;5061373;28;20224;-71
2023/03/02 06:12:33;;;;;;;20.13;10.33;;;;;;;-0.51;81.45;100867.66;5065127;28;20278;-71
2023/03/02 06:14:59;;;;;;;21.33;9.80;;;;;;;-0.50;81.76;100872.03;5067069;28;20222;-70
2023/03/02 06:17:26;;;;;;;25.63;11.73;;;;;;;-0.48;81.92;100867.84;5065587;28;20192;-70
2023/03/02 06:19:52;;;;;;;21.73;10.93;;;;;;;-0.48;81.88;100870.44;5063630;28;20191;-71
2023/03/02 06:22:18;;;;;;;23.13;10.87;;;;;;;-0.54;81.77;100870.06;5065707;28;20783;-71
2023/03/02 06:24:45;;;;;;;24.77;11.40;;;;;;;-0.55;82.06;100877.75;5066485;28;20219;-72
2023/03/02 06:27:12;;;;;;;22.90;10.93;;;;;;;-0.58;82.17;100878.47;5066813;28;20354;-72
2023/03/02 06:29:38;;;;;;;22.47;10.30;;;;;;;-0.64;82.54;100878.06;5083610;28;20207;-72
2023/03/02 06:32:05;;;;;;;21.20;10.67;;;;;;;-0.46;82.59;100883.53;5067692;28;20645;-71
2023/03/02 06:34:32;;;;;;;20.17;9.73;;;;;;;-0.43;82.19;100881.16;5069582;28;20302;-71
2023/03/02 06:37:00;;;;;;;22.20;10.63;;;;;;;-0.42;82.23;100894.25;5069059;28;20213;-71
2023/03/02 06:39:27;;;;;;;20.23;10.40;;;;;;;-0.42;82.03;100894.25;5070311;28;20214;-72
2023/03/02 06:41:53;;;;;;;19.60;10.10;;;;;;;-0.38;82.41;100892.78;5066003;28;20296;-71
2023/03/02 06:44:20;;;;;;;21.77;9.97;;;;;;;-0.37;82.07;100891.97;5066605;28;20222;-72
2023/03/02 06:46:46;;;;;;;20.40;10.57;;;;;;;-0.30;81.46;100888.06;5064926;28;20660;-72
2023/03/02 06:49:12;;;;;;;21.67;9.90;;;;;;;-0.17;80.79;100891.53;5062891;28;20198;-71
2023/03/02 06:51:39;;;;;;;19.47;10.27;;;;;;;-0.10;81.10;100885.00;5063074;28;20207;-71
2023/03/02 06:54:07;;;;;;;21.30;11.03;;;;;;;0.01;80.57;100889.22;5069293;28;20319;-72
2023/03/02 06:56:34;;;;;;;21.27;10.67;;;;;;;0.18;80.31;100890.25;5071193;28;20200;-71
2023/03/02 06:59:00;;;;;;;23.47;10.33;;;;;;;0.28;80.12;100890.03;5073650;28;20212;-72
2023/03/02 07:01:31;;;;;;;21.77;10.63;;;;;;;0.44;80.43;100894.50;5059612;28;20669;-71
2023/03/02 07:03:58;;;;;;;20.33;10.30;;;;;;;0.50;80.02;100894.88;5056686;28;20220;-71
2023/03/02 07:06:24;;;;;;;23.87;10.63;;;;;;;0.56;80.63;100896.13;5062395;28;20510;-71
2023/03/02 07:08:51;;;;;;;25.03;11.23;;;;;;;0.71;80.43;100895.25;5067212;28;20232;-72
2023/03/02 07:11:17;;;;;;;22.60;10.90;;;;;;;0.85;80.25;100883.97;5063033;28;20296;-72
2023/03/02 07:13:43;;;;;;;22.23;11.33;;;;;;;0.99;79.82;100896.13;5062565;28;20237;-72
2023/03/02 07:16:13;;;;;;;22.33;10.47;;;;;;;1.05;79.48;100895.56;5065715;28;20269;-70
2023/03/02 07:18:40;;;;;;;23.67;11.23;;;;;;;1.12;79.10;100892.50;5062617;28;20202;-70
2023/03/02 07:21:07;;;;;;;22.07;11.40;;;;;;;1.13;79.47;100892.59;5066512;28;20847;-70
2023/03/02 07:23:35;;;;;;;24.03;10.77;;;;;;;1.18;79.78;100891.16;5067934;28;20258;-70
2023/03/02 07:26:07;;;;;;;23.30;11.67;;;;;;;1.27;79.32;100885.59;5069041;28;20684;-71
2023/03/02 07:28:38;;;;;;;24.33;11.50;;;;;;;1.37;78.82;100879.22;5062555;28;20202;-70
2023/03/02 07:31:05;;;;;;;23.17;11.67;;;;;;;1.43;78.80;100882.16;5065809;28;20196;-71
2023/03/02 07:33:31;;;;;;;27.77;11.77;;;;;;;1.58;78.70;100886.53;5065514;28;20343;-70
2023/03/02 07:35:58;;;;;;;26.10;12.43;;;;;;;1.68;78.63;100882.75;5064414;28;20194;-70
2023/03/02 07:38:24;;;;;;;29.27;12.07;;;;;;;1.81;78.24;100885.25;5066357;28;20194;-71
2023/03/02 07:40:50;;;;;;;24.40;11.67;;;;;;;1.95;77.79;100885.09;5069308;28;20198;-70
2023/03/02 07:43:17;;;;;;;25.93;11.90;;;;;;;2.06;77.45;100887.50;5063839;28;20240;-71
2023/03/02 07:45:43;;;;;;;23.50;10.47;;;;;;;2.34;73.63;100887.28;5060833;28;20217;-71
2023/03/02 07:48:10;;;;;;;18.97;10.13;;;;;;;2.68;71.06;100883.84;5065121;28;20194;-70
2023/03/02 07:50:36;;;;;;;17.10;9.70;;;;;;;2.94;69.33;100886.13;5066004;28;20233;-71
2023/03/02 07:53:03;;;;;;;17.50;9.20;;;;;;;3.10;68.85;100874.72;5066674;28;20206;-71
2023/03/02 07:55:29;;;;;;;18.57;9.30;;;;;;;3.51;66.17;100878.50;5061499;28;20221;-71
2023/03/02 07:57:55;;;;;;;16.00;8.50;;;;;;;3.76;65.10;100884.13;5067543;28;20247;-70
2023/03/02 08:00:22;;;;;;;17.37;9.47;;;;;;;3.92;66.22;100884.03;5064581;28;20237;-70
2023/03/02 08:02:48;;;;;;;16.47;8.77;;;;;;;4.06;64.35;100882.97;5062722;28;20619;-72
2023/03/02 08:05:15;;;;;;;16.87;7.43;;;;;;;4.23;63.20;100878.50;5062494;28;20223;-70
2023/03/02 08:07:42;;;;;;;16.13;8.03;;;;;;;4.27;63.65;100874.31;5067573;28;20250;-70
2023/03/02 08:10:11;;;;;;;14.43;8.33;;;;;;;4.40;63.26;100869.72;5066438;28;20273;-70
2023/03/02 08:12:37;;;;;;;14.73;8.53;;;;;;;4.53;63.09;100873.78;5065520;28;20247;-71
2023/03/02 08:15:04;;;;;;;16.80;9.20;;;;;;;4.79;62.04;100871.41;5063361;28;20247;-70
2023/03/02 08:17:31;;;;;;;19.80;8.57;;;;;;;5.03;60.50;100857.63;5066061;28;20207;-70
2023/03/02 08:19:57;;;;;;;17.30;8.60;;;;;;;5.27;60.10;100867.41;5065059;28;20209;-71
2023/03/02 08:22:23;;;;;;;18.13;8.77;;;;;;;5.55;58.42;100865.06;5066659;28;20200;-71
2023/03/02 08:24:50;;;;;;;14.80;8.17;;;;;;;5.73;57.76;100859.69;5063048;28;20723;-71
2023/03/02 08:27:16;;;;;;;16.83;8.73;;;;;;;5.83;57.62;100868.81;5075769;28;20656;-70
2023/03/02 08:29:42;;;;;;;15.80;8.70;;;;;;;5.93;56.69;100864.00;5066798;28;20463;-70
2023/03/02 08:32:09;;;;;;;15.97;8.50;;;;;;;6.04;56.87;100869.72;5064320;28;20192;-70
2023/03/02 08:34:35;;;;;;;14.57;8.47;;;;;;;6.16;56.34;100866.66;5068636;28;20222;-71
2023/03/02 08:37:02;;;;;;;14.67;8.23;;;;;;;6.29;56.04;100859.28;5069135;28;20200;-69
2023/03/02 08:39:30;;;;;;;15.13;7.90;;;;;;;6.37;55.05;100867.47;5071238;28;20198;-71
2023/03/02 08:41:56;;;;;;;18.90;8.93;;;;;;;6.47;55.07;100860.84;5066114;28;20336;-69
2023/03/02 08:44:23;;;;;;;15.63;8.53;;;;;;;6.55;54.23;100854.13;5068690;28;20606;-71
2023/03/02 08:46:50;;;;;;;16.50;8.23;;;;;;;6.64;54.63;100861.44;5067294;28;20218;-71
2023/03/02 08:49:18;;;;;;;15.60;7.90;;;;;;;6.70;53.76;100856.41;5065033;28;20229;-71
2023/03/02 08:51:45;;;;;;;16.00;8.07;;;;;;;6.78;54.27;100844.41;5072481;28;20237;-71
2023/03/02 08:54:12;;;;;;;18.27;8.43;;;;;;;6.91;53.68;100849.28;5065155;28;20218;-70
2023/03/02 08:56:40;;;;;;;15.93;8.20;;;;;;;6.98;52.93;100847.75;5068956;28;20221;-70
2023/03/02 08:59:10;;;;;;;20.00;8.60;;;;;;;7.08;52.64;100852.50;5067863;28;20194;-69
2023/03/02 09:01:37;;;;;;;18.77;8.73;;;;;;;7.14;52.32;100848.34;5066210;28;20200;-69
2023/03/02 09:04:06;;;;;;;16.53;8.10;;;;;;;7.21;51.50;100850.38;5069210;28;20237;-70
2023/03/02 09:06:36;;;;;;;15.93;8.00;;;;;;;7.23;52.10;100842.50;5069230;28;20289;-70
2023/03/02 09:09:03;;;;;;;19.63;9.03;;;;;;;7.30;51.72;100844.50;5070656;28;20268;-70
2023/03/02 09:11:30;;;;;;;19.03;7.73;;;;;;;7.35;51.46;100849.94;5068897;28;20202;-70
2023/03/02 09:13:57;;;;;;;18.60;8.27;;;;;;;7.40;51.72;100843.06;5062421;28;20835;-70
2023/03/02 09:16:24;;;;;;;15.13;8.07;;;;;;;7.53;50.98;100835.59;5063156;28;20215;-69
2023/03/02 09:18:52;;;;;;;14.37;8.13;;;;;;;7.63;50.45;100841.19;5058879;28;20382;-70
2023/03/02 09:21:19;;;;;;;15.73;8.17;;;;;;;7.60;50.50;100839.31;5064030;28;20202;-70
2023/03/02 09:23:45;;;;;;;14.70;8.30;;;;;;;7.72;50.69;100844.13;5061131;28;20219;-70
2023/03/02 09:26:12;;;;;;;14.27;7.67;;;;;;;7.80;49.70;100834.72;5062831;28;20342;-71
2023/03/02 09:28:38;;;;;;;15.60;8.10;;;;;;;7.67;50.26;100841.34;5058946;28;20207;-70
2023/03/02 09:31:07;;;;;;;16.90;8.17;;;;;;;7.72;49.98;100841.50;5061609;28;20208;-69
2023/03/02 09:33:34;;;;;;;13.30;7.47;;;;;;;7.81;49.76;100839.13;5060598;28;20194;-70
2023/03/02 09:36:08;;;;;;;22.40;8.60;;;;;;;7.85;49.85;100841.03;5062391;28;20252;-70
2023/03/02 09:38:34;;;;;;;20.27;8.00;;;;;;;8.02;49.77;100845.09;5060968;28;20673;-70
2023/03/02 09:41:19;;;;;;;14.73;8.07;;;;;;;8.18;48.88;100843.81;5056791;28;20206;-70
2023/03/02 09:44:04;;;;;;;13.93;7.90;;;;;;;8.24;49.18;100841.34;5059236;28;20290;-70
2023/03/02 09:46:48;;;;;;;18.03;8.43;;;;;;;8.38;48.26;100841.78;5062759;28;20311;-70
2023/03/02 09:49:50;;;;;;;15.30;7.73;;;;;;;8.49;48.07;100840.38;5061017;28;20265;-69
2023/03/02 09:52:32;;;;;;;14.63;7.70;;;;;;;8.38;47.80;100845.31;5059974;28;20664;-69
2023/03/02 09:55:15;;;;;;;14.50;7.90;;;;;;;8.46;48.00;100845.56;5063910;28;20224;-70
2023/03/02 09:57:41;;;;;;;19.40;7.53;;;;;;;8.46;47.65;100843.81;5060018;28;20197;-70
2023/03/02 10:00:13;;;;;;;13.07;7.73;;;;;;;8.56;47.16;100837.06;5075969;28;20203;-69
2023/03/02 10:02:49;;;;;;;17.87;7.57;;;;;;;8.42;47.35;100849.88;5060888;28;20191;-70
2023/03/02 10:05:25;;;;;;;17.27;7.53;;;;;;;8.47;47.97;100836.78;5059053;28;20276;-70
2023/03/02 10:07:52;;;;;;;14.93;7.63;;;;;;;8.64;47.68;100837.25;5059886;28;20452;-69
2023/03/02 10:10:43;;;;;;;16.43;7.43;;;;;;;8.76;47.39;100846.41;5061071;28;20202;-69
2023/03/02 10:13:39;;;;;;;18.60;8.10;;;;;;;8.76;47.12;100846.41;5056508;28;20293;-69
2023/03/02 10:16:18;;;;;;;14.00;7.17;;;;;;;8.89;47.14;100846.78;5039025;28;20250;-70
2023/03/02 10:18:50;;;;;;;16.17;7.67;;;;;;;8.86;46.45;100839.66;5059354;28;20229;-69
2023/03/02 10:21:37;;;;;;;13.70;7.23;;;;;;;8.73;46.70;100838.41;5060893;28;20231;-70
2023/03/02 10:24:25;;;;;;;14.97;7.43;;;;;;;8.83;47.02;100831.66;5060289;28;20231;-71
2023/03/02 10:26:58;;;;;;;11.00;6.87;;;;;;;9.00;47.33;100834.75;5059828;28;20249;-70
2023/03/02 10:29:46;;;;;;;15.07;6.73;;;;;;;9.24;46.52;100830.13;5060930;28;20620;-69
2023/03/02 10:32:24;;;;;;;16.50;7.17;;;;;;;9.43;45.98;100832.34;5062061;28;20698;-69
2023/03/02 10:34:52;;;;;;;18.70;7.20;;;;;;;9.45;45.75;100839.44;5058849;28;20283;-69
2023/03/02 10:37:23;;;;;;;13.57;7.27;;;;;;;9.28;46.04;100826.69;5061647;28;20547;-69
2023/03/02 10:39:51;;;;;;;14.13;6.80;;;;;;;9.27;45.48;100824.00;5058178;28;20198;-69
2023/03/02 10:42:39;;;;;;;12.80;6.57;;;;;;;9.18;46.22;100821.09;5061466;28;20255;-70
2023/03/02 10:45:25;;;;;;;14.17;6.73;;;;;;;9.28;46.23;100823.16;5061276;28;20227;-70
2023/03/02 10:48:03;;;;;;;15.57;7.13;;;;;;;9.53;46.11;100822.00;5060445;28;20217;-70
2023/03/02 10:50:30;;;;;;;12.33;6.83;;;;;;;9.60;45.20;100819.53;5056870;28;20198;-71
2023/03/02 10:52:57;;;;;;;11.83;6.90;;;;;;;9.55;45.51;100815.00;5059326;28;20284;-69
2023/03/02 10:55:27;;;;;;;13.63;7.00;;;;;;;9.72;45.31;100814.56;5060472;28;20714;-72
2023/03/02 10:58:25;;;;;;;15.13;6.90;;;;;;;9.88;45.78;100807.88;5058577;28;20195;-69
2023/03/02 11:01:16;;;;;;;12.63;6.73;;;;;;;10.08;45.12;100810.97;5049215;28;20226;-70
2023/03/02 11:04:00;;;;;;;12.63;6.87;;;;;;;10.20;44.09;100805.03;5059510;28;20272;-70
2023/03/02 11:06:28;;;;;;;12.47;6.73;;;;;;;10.17;44.57;100797.03;5060445;28;20728;-70
2023/03/02 11:09:02;;;;;;;11.90;6.50;;;;;;;10.34;44.63;100793.00;5059412;28;20211;-69
2023/03/02 11:11:29;;;;;;;16.33;6.93;;;;;;;10.36;43.75;100794.81;5068253;28;20650;-69
2023/03/02 11:14:07;;;;;;;10.83;6.43;;;;;;;10.37;43.67;100790.44;5063710;28;20639;-69
2023/03/02 11:16:34;;;;;;;14.93;6.60;;;;;;;10.35;43.64;100782.47;5065919;28;20567;-69
2023/03/02 11:19:14;;;;;;;15.03;7.23;;;;;;;10.44;44.06;100791.47;5064154;28;20195;-69
2023/03/02 11:21:43;;;;;;;11.83;6.87;;;;;;;10.37;44.24;100777.19;5068917;28;20245;-69
2023/03/02 11:24:24;;;;;;;10.97;6.30;;;;;;;10.49;44.09;100780.09;5064965;28;21202;-70
2023/03/02 11:26:57;;;;;;;15.43;6.67;;;;;;;10.65;43.57;100776.00;5063758;28;20250;-70
2023/03/02 11:29:38;;;;;;;13.13;6.00;;;;;;;10.58;44.25;100768.78;5058053;28;20621;-70
2023/03/02 11:32:07;;;;;;;14.33;6.43;;;;;;;10.65;43.73;100776.00;5054397;28;20200;-70
2023/03/02 11:34:39;;;;;;;12.80;6.67;;;;;;;10.61;43.71;100763.56;5061676;28;20226;-68
2023/03/02 11:37:17;;;;;;;11.83;6.67;;;;;;;10.71;44.24;100764.63;5064520;28;20607;-70